sensor_id;sensor_type;location;lat;lon;timestamp;temperature;humidity
1936;DHT22;969;49.892;10.896;2023-12-29T00:01:47;21.10;58.90
1936;DHT22;969;49.892;10.896;2023-12-29T00:04:12;21.10;58.90
1936;DHT22;969;49.892;10.896;2023-12-29T00:06:39;21.10;58.90
1936;DHT22;969;49.892;10.896;2023-12-29T00:09:04;21.10;59.00
1936;DHT22;969;49.892;10.896;2023-12-29T00:11:30;21.10;59.00
1936;DHT22;969;49.892;10.896;2023-12-29T00:13:56;21.10;59.00
1936;DHT22;969;49.892;10.896;2023-12-29T00:16:21;21.10;58.90
1936;DHT22;969;49.892;10.896;2023-12-29T00:18:47;21.10;58.90
1936;DHT22;969;49.892;10.896;2023-12-29T00:21:12;21.00;58.90
1936;DHT22;969;49.892;10.896;2023-12-29T00:23:38;21.10;58.90
1936;DHT22;969;49.892;10.896;2023-12-29T00:26:04;21.10;58.90
1936;DHT22;969;49.892;10.896;2023-12-29T00:28:29;21.10;58.90
1936;DHT22;969;49.892;10.896;2023-12-29T00:30:55;21.00;58.90
1936;DHT22;969;49.892;10.896;2023-12-29T00:33:20;21.00;58.90
1936;DHT22;969;49.892;10.896;2023-12-29T00:35:46;21.10;58.90
1936;DHT22;969;49.892;10.896;2023-12-29T00:38:12;21.00;58.90
1936;DHT22;969;49.892;10.896;2023-12-29T00:40:37;21.10;58.90
1936;DHT22;969;49.892;10.896;2023-12-29T00:43:03;21.00;58.80
1936;DHT22;969;49.892;10.896;2023-12-29T00:45:29;21.00;58.80
1936;DHT22;969;49.892;10.896;2023-12-29T00:48:02;21.00;58.80
1936;DHT22;969;49.892;10.896;2023-12-29T00:50:28;21.00;58.80
1936;DHT22;969;49.892;10.896;2023-12-29T00:52:54;21.00;58.80
1936;DHT22;969;49.892;10.896;2023-12-29T00:55:19;21.00;58.80
1936;DHT22;969;49.892;10.896;2023-12-29T00:57:45;21.00;58.80
1936;DHT22;969;49.892;10.896;2023-12-29T01:00:11;21.00;58.80
1936;DHT22;969;49.892;10.896;2023-12-29T01:02:38;21.00;58.80
1936;DHT22;969;49.892;10.896;2023-12-29T01:05:04;21.00;58.80
1936;DHT22;969;49.892;10.896;2023-12-29T01:07:30;21.00;58.80
1936;DHT22;969;49.892;10.896;2023-12-29T01:09:55;21.00;58.80
1936;DHT22;969;49.892;10.896;2023-12-29T01:12:21;21.00;58.80
1936;DHT22;969;49.892;10.896;2023-12-29T01:14:46;21.00;58.80
1936;DHT22;969;49.892;10.896;2023-12-29T01:17:12;21.00;59.40
1936;DHT22;969;49.892;10.896;2023-12-29T01:19:37;21.00;58.80
1936;DHT22;969;49.892;10.896;2023-12-29T01:22:03;21.00;59.00
1936;DHT22;969;49.892;10.896;2023-12-29T01:24:29;21.00;58.80
1936;DHT22;969;49.892;10.896;2023-12-29T01:26:55;21.00;58.80
1936;DHT22;969;49.892;10.896;2023-12-29T01:29:21;21.00;58.80
1936;DHT22;969;49.892;10.896;2023-12-29T01:31:46;21.00;58.80
1936;DHT22;969;49.892;10.896;2023-12-29T01:34:13;21.00;58.80
1936;DHT22;969;49.892;10.896;2023-12-29T01:36:38;20.90;58.70
1936;DHT22;969;49.892;10.896;2023-12-29T01:39:04;20.90;58.70
1936;DHT22;969;49.892;10.896;2023-12-29T01:41:30;20.90;58.70
1936;DHT22;969;49.892;10.896;2023-12-29T01:46:29;21.00;58.70
1936;DHT22;969;49.892;10.896;2023-12-29T01:48:55;20.90;58.70
1936;DHT22;969;49.892;10.896;2023-12-29T01:51:23;21.00;58.70
1936;DHT22;969;49.892;10.896;2023-12-29T01:53:50;20.90;58.70
1936;DHT22;969;49.892;10.896;2023-12-29T01:56:16;20.90;58.70
1936;DHT22;969;49.892;10.896;2023-12-29T01:58:43;21.00;58.70
1936;DHT22;969;49.892;10.896;2023-12-29T02:01:08;21.00;58.80
1936;DHT22;969;49.892;10.896;2023-12-29T02:03:35;21.00;58.70
1936;DHT22;969;49.892;10.896;2023-12-29T02:06:01;20.90;58.70
1936;DHT22;969;49.892;10.896;2023-12-29T02:08:27;20.90;58.70
1936;DHT22;969;49.892;10.896;2023-12-29T02:10:53;21.00;58.70
1936;DHT22;969;49.892;10.896;2023-12-29T02:13:20;20.90;58.60
1936;DHT22;969;49.892;10.896;2023-12-29T02:15:51;20.90;58.70
1936;DHT22;969;49.892;10.896;2023-12-29T02:18:18;20.90;58.60
1936;DHT22;969;49.892;10.896;2023-12-29T02:20:44;20.90;58.60
1936;DHT22;969;49.892;10.896;2023-12-29T02:23:09;20.90;58.60
1936;DHT22;969;49.892;10.896;2023-12-29T02:25:36;20.90;58.60
1936;DHT22;969;49.892;10.896;2023-12-29T02:28:12;20.90;58.60
1936;DHT22;969;49.892;10.896;2023-12-29T02:30:51;21.00;58.70
1936;DHT22;969;49.892;10.896;2023-12-29T02:33:21;20.90;58.60
1936;DHT22;969;49.892;10.896;2023-12-29T02:35:49;20.90;58.60
1936;DHT22;969;49.892;10.896;2023-12-29T02:38:16;20.90;58.60
1936;DHT22;969;49.892;10.896;2023-12-29T02:40:41;20.90;58.60
1936;DHT22;969;49.892;10.896;2023-12-29T02:43:08;20.90;58.60
1936;DHT22;969;49.892;10.896;2023-12-29T02:45:34;20.90;58.60
1936;DHT22;969;49.892;10.896;2023-12-29T02:48:00;20.90;58.60
1936;DHT22;969;49.892;10.896;2023-12-29T02:50:25;20.90;58.60
1936;DHT22;969;49.892;10.896;2023-12-29T02:52:51;20.90;58.60
1936;DHT22;969;49.892;10.896;2023-12-29T02:55:16;20.90;58.60
1936;DHT22;969;49.892;10.896;2023-12-29T02:57:42;20.90;58.60
1936;DHT22;969;49.892;10.896;2023-12-29T03:00:08;20.90;58.60
1936;DHT22;969;49.892;10.896;2023-12-29T03:02:34;20.90;58.60
1936;DHT22;969;49.892;10.896;2023-12-29T03:05:00;20.90;58.60
1936;DHT22;969;49.892;10.896;2023-12-29T03:07:25;20.90;58.60
1936;DHT22;969;49.892;10.896;2023-12-29T03:09:51;20.80;58.50
1936;DHT22;969;49.892;10.896;2023-12-29T03:12:16;20.90;58.60
1936;DHT22;969;49.892;10.896;2023-12-29T03:14:43;20.90;58.60
1936;DHT22;969;49.892;10.896;2023-12-29T03:17:09;20.90;58.60
1936;DHT22;969;49.892;10.896;2023-12-29T03:19:35;20.90;58.60
1936;DHT22;969;49.892;10.896;2023-12-29T03:22:01;20.80;58.50
1936;DHT22;969;49.892;10.896;2023-12-29T03:24:28;20.90;58.50
1936;DHT22;969;49.892;10.896;2023-12-29T03:26:53;20.80;58.50
1936;DHT22;969;49.892;10.896;2023-12-29T03:29:19;20.90;58.50
1936;DHT22;969;49.892;10.896;2023-12-29T03:31:45;20.80;58.50
1936;DHT22;969;49.892;10.896;2023-12-29T03:34:10;20.90;58.60
1936;DHT22;969;49.892;10.896;2023-12-29T03:36:36;20.80;58.50
1936;DHT22;969;49.892;10.896;2023-12-29T03:39:01;20.90;58.50
1936;DHT22;969;49.892;10.896;2023-12-29T03:41:28;20.80;58.40
1936;DHT22;969;49.892;10.896;2023-12-29T03:43:53;20.90;58.50
1936;DHT22;969;49.892;10.896;2023-12-29T03:46:22;20.90;58.60
1936;DHT22;969;49.892;10.896;2023-12-29T03:48:48;20.80;58.50
1936;DHT22;969;49.892;10.896;2023-12-29T03:51:15;20.80;58.50
1936;DHT22;969;49.892;10.896;2023-12-29T03:53:41;20.80;58.40
1936;DHT22;969;49.892;10.896;2023-12-29T03:56:08;20.80;58.40
1936;DHT22;969;49.892;10.896;2023-12-29T03:58:34;20.80;58.40
1936;DHT22;969;49.892;10.896;2023-12-29T04:01:00;20.80;58.40
1936;DHT22;969;49.892;10.896;2023-12-29T04:03:26;20.80;58.40
1936;DHT22;969;49.892;10.896;2023-12-29T04:05:51;20.80;58.40
1936;DHT22;969;49.892;10.896;2023-12-29T04:08:17;20.80;58.40
1936;DHT22;969;49.892;10.896;2023-12-29T04:10:43;20.80;58.40
1936;DHT22;969;49.892;10.896;2023-12-29T04:13:08;20.80;59.00
1936;DHT22;969;49.892;10.896;2023-12-29T04:15:36;20.80;58.40
1936;DHT22;969;49.892;10.896;2023-12-29T04:18:02;20.80;58.40
1936;DHT22;969;49.892;10.896;2023-12-29T04:20:28;20.80;58.50
1936;DHT22;969;49.892;10.896;2023-12-29T04:22:54;20.80;58.40
1936;DHT22;969;49.892;10.896;2023-12-29T04:25:20;20.80;58.40
1936;DHT22;969;49.892;10.896;2023-12-29T04:27:46;20.80;58.40
1936;DHT22;969;49.892;10.896;2023-12-29T04:30:11;20.80;58.40
1936;DHT22;969;49.892;10.896;2023-12-29T04:32:37;20.80;58.40
1936;DHT22;969;49.892;10.896;2023-12-29T04:35:03;20.80;58.40
1936;DHT22;969;49.892;10.896;2023-12-29T04:37:28;20.80;58.40
1936;DHT22;969;49.892;10.896;2023-12-29T04:39:54;20.80;58.40
1936;DHT22;969;49.892;10.896;2023-12-29T04:42:20;20.80;58.40
1936;DHT22;969;49.892;10.896;2023-12-29T04:44:45;20.80;58.40
1936;DHT22;969;49.892;10.896;2023-12-29T04:47:11;20.80;58.40
1936;DHT22;969;49.892;10.896;2023-12-29T04:49:36;20.80;58.40
1936;DHT22;969;49.892;10.896;2023-12-29T04:52:02;20.80;58.40
1936;DHT22;969;49.892;10.896;2023-12-29T04:54:28;20.80;58.50
1936;DHT22;969;49.892;10.896;2023-12-29T04:56:53;20.80;58.40
1936;DHT22;969;49.892;10.896;2023-12-29T04:59:19;20.80;58.50
1936;DHT22;969;49.892;10.896;2023-12-29T05:01:45;20.80;58.50
1936;DHT22;969;49.892;10.896;2023-12-29T05:04:10;20.80;58.50
1936;DHT22;969;49.892;10.896;2023-12-29T05:06:36;20.80;58.50
1936;DHT22;969;49.892;10.896;2023-12-29T05:09:01;20.80;58.50
1936;DHT22;969;49.892;10.896;2023-12-29T05:11:27;20.80;58.50
1936;DHT22;969;49.892;10.896;2023-12-29T05:13:53;20.80;58.50
1936;DHT22;969;49.892;10.896;2023-12-29T05:16:19;20.80;58.50
1936;DHT22;969;49.892;10.896;2023-12-29T05:18:44;20.80;58.50
1936;DHT22;969;49.892;10.896;2023-12-29T05:21:17;20.80;58.50
1936;DHT22;969;49.892;10.896;2023-12-29T05:23:46;20.80;58.50
1936;DHT22;969;49.892;10.896;2023-12-29T05:26:14;20.80;58.50
1936;DHT22;969;49.892;10.896;2023-12-29T05:28:39;20.80;58.50
1936;DHT22;969;49.892;10.896;2023-12-29T05:31:05;20.80;58.50
1936;DHT22;969;49.892;10.896;2023-12-29T05:33:31;20.80;58.50
1936;DHT22;969;49.892;10.896;2023-12-29T05:35:57;20.80;58.40
1936;DHT22;969;49.892;10.896;2023-12-29T05:38:23;20.80;58.50
1936;DHT22;969;49.892;10.896;2023-12-29T05:40:48;20.80;58.40
1936;DHT22;969;49.892;10.896;2023-12-29T05:43:18;20.80;58.50
1936;DHT22;969;49.892;10.896;2023-12-29T05:45:44;20.80;58.50
1936;DHT22;969;49.892;10.896;2023-12-29T05:48:10;20.90;58.50
1936;DHT22;969;49.892;10.896;2023-12-29T05:50:36;20.80;58.40
1936;DHT22;969;49.892;10.896;2023-12-29T05:53:01;20.80;58.50
1936;DHT22;969;49.892;10.896;2023-12-29T05:55:27;20.80;58.50
1936;DHT22;969;49.892;10.896;2023-12-29T05:57:53;20.80;58.40
1936;DHT22;969;49.892;10.896;2023-12-29T06:00:18;20.80;58.50
1936;DHT22;969;49.892;10.896;2023-12-29T06:02:44;20.80;58.40
1936;DHT22;969;49.892;10.896;2023-12-29T06:05:13;20.80;58.40
1936;DHT22;969;49.892;10.896;2023-12-29T06:07:39;20.80;58.40
1936;DHT22;969;49.892;10.896;2023-12-29T06:10:05;20.90;58.50
1936;DHT22;969;49.892;10.896;2023-12-29T06:12:31;20.80;58.40
1936;DHT22;969;49.892;10.896;2023-12-29T06:14:56;20.80;58.40
1936;DHT22;969;49.892;10.896;2023-12-29T06:17:22;20.80;58.40
1936;DHT22;969;49.892;10.896;2023-12-29T06:19:48;20.80;58.50
1936;DHT22;969;49.892;10.896;2023-12-29T06:22:13;20.90;59.10
1936;DHT22;969;49.892;10.896;2023-12-29T06:24:40;20.80;58.50
1936;DHT22;969;49.892;10.896;2023-12-29T06:27:08;20.90;58.60
1936;DHT22;969;49.892;10.896;2023-12-29T06:29:33;20.90;58.60
1936;DHT22;969;49.892;10.896;2023-12-29T06:31:59;20.90;58.60
1936;DHT22;969;49.892;10.896;2023-12-29T06:34:25;20.90;58.50
1936;DHT22;969;49.892;10.896;2023-12-29T06:36:50;20.90;58.50
1936;DHT22;969;49.892;10.896;2023-12-29T06:39:16;20.90;59.10
1936;DHT22;969;49.892;10.896;2023-12-29T06:41:42;20.90;58.50
1936;DHT22;969;49.892;10.896;2023-12-29T06:44:07;21.00;58.60
1936;DHT22;969;49.892;10.896;2023-12-29T06:46:33;21.00;58.60
1936;DHT22;969;49.892;10.896;2023-12-29T06:48:59;21.00;58.50
1936;DHT22;969;49.892;10.896;2023-12-29T06:51:24;21.00;58.50
1936;DHT22;969;49.892;10.896;2023-12-29T06:53:50;21.00;58.50
1936;DHT22;969;49.892;10.896;2023-12-29T06:56:16;21.00;58.50
1936;DHT22;969;49.892;10.896;2023-12-29T06:58:43;21.00;58.50
1936;DHT22;969;49.892;10.896;2023-12-29T07:01:09;21.00;58.50
1936;DHT22;969;49.892;10.896;2023-12-29T07:03:35;21.00;58.40
1936;DHT22;969;49.892;10.896;2023-12-29T07:06:01;21.10;58.50
1936;DHT22;969;49.892;10.896;2023-12-29T07:08:27;21.10;58.50
1936;DHT22;969;49.892;10.896;2023-12-29T07:10:53;21.10;58.50
1936;DHT22;969;49.892;10.896;2023-12-29T07:13:19;21.10;58.50
1936;DHT22;969;49.892;10.896;2023-12-29T07:15:46;21.10;58.40
1936;DHT22;969;49.892;10.896;2023-12-29T07:18:12;21.10;58.40
1936;DHT22;969;49.892;10.896;2023-12-29T07:20:37;21.10;58.40
1936;DHT22;969;49.892;10.896;2023-12-29T07:23:03;21.10;58.40
1936;DHT22;969;49.892;10.896;2023-12-29T07:25:29;21.10;58.40
1936;DHT22;969;49.892;10.896;2023-12-29T07:27:54;21.10;58.40
1936;DHT22;969;49.892;10.896;2023-12-29T07:30:20;21.10;58.50
1936;DHT22;969;49.892;10.896;2023-12-29T07:32:45;21.20;58.60
1936;DHT22;969;49.892;10.896;2023-12-29T07:35:11;21.10;58.50
1936;DHT22;969;49.892;10.896;2023-12-29T07:37:37;21.10;58.50
1936;DHT22;969;49.892;10.896;2023-12-29T07:40:03;21.10;58.50
1936;DHT22;969;49.892;10.896;2023-12-29T07:42:29;21.20;58.60
1936;DHT22;969;49.892;10.896;2023-12-29T07:44:54;21.10;58.50
1936;DHT22;969;49.892;10.896;2023-12-29T07:47:21;21.10;58.50
1936;DHT22;969;49.892;10.896;2023-12-29T07:49:47;21.20;58.60
1936;DHT22;969;49.892;10.896;2023-12-29T07:52:13;21.10;58.50
1936;DHT22;969;49.892;10.896;2023-12-29T07:54:38;21.20;58.60
1936;DHT22;969;49.892;10.896;2023-12-29T07:57:04;21.20;58.60
1936;DHT22;969;49.892;10.896;2023-12-29T07:59:30;21.20;58.60
1936;DHT22;969;49.892;10.896;2023-12-29T08:01:55;21.10;58.50
1936;DHT22;969;49.892;10.896;2023-12-29T08:04:22;21.20;58.60
1936;DHT22;969;49.892;10.896;2023-12-29T08:06:49;21.20;58.60
1936;DHT22;969;49.892;10.896;2023-12-29T08:09:14;21.20;58.60
1936;DHT22;969;49.892;10.896;2023-12-29T08:11:40;21.20;58.60
1936;DHT22;969;49.892;10.896;2023-12-29T08:14:08;21.20;58.60
1936;DHT22;969;49.892;10.896;2023-12-29T08:16:38;21.20;58.60
1936;DHT22;969;49.892;10.896;2023-12-29T08:19:04;21.20;58.60
1936;DHT22;969;49.892;10.896;2023-12-29T08:21:30;21.20;58.60
1936;DHT22;969;49.892;10.896;2023-12-29T08:23:55;21.20;58.80
1936;DHT22;969;49.892;10.896;2023-12-29T08:26:21;21.20;58.60
1936;DHT22;969;49.892;10.896;2023-12-29T08:28:47;21.10;58.50
1936;DHT22;969;49.892;10.896;2023-12-29T08:31:14;21.20;58.60
1936;DHT22;969;49.892;10.896;2023-12-29T08:33:39;21.20;58.60
1936;DHT22;969;49.892;10.896;2023-12-29T08:36:05;21.20;58.60
1936;DHT22;969;49.892;10.896;2023-12-29T08:38:32;21.10;58.50
1936;DHT22;969;49.892;10.896;2023-12-29T08:40:58;21.10;58.50
1936;DHT22;969;49.892;10.896;2023-12-29T08:43:23;21.10;58.50
1936;DHT22;969;49.892;10.896;2023-12-29T08:45:49;21.10;58.50
1936;DHT22;969;49.892;10.896;2023-12-29T08:48:15;21.20;58.50
1936;DHT22;969;49.892;10.896;2023-12-29T08:50:41;21.10;58.50
1936;DHT22;969;49.892;10.896;2023-12-29T08:53:08;21.10;58.50
1936;DHT22;969;49.892;10.896;2023-12-29T08:55:33;21.10;58.50
1936;DHT22;969;49.892;10.896;2023-12-29T08:57:59;21.10;58.50
1936;DHT22;969;49.892;10.896;2023-12-29T09:00:25;21.10;58.50
1936;DHT22;969;49.892;10.896;2023-12-29T09:02:50;21.10;58.50
1936;DHT22;969;49.892;10.896;2023-12-29T09:05:16;21.10;58.50
1936;DHT22;969;49.892;10.896;2023-12-29T09:07:41;21.10;58.50
1936;DHT22;969;49.892;10.896;2023-12-29T09:10:07;21.10;58.50
1936;DHT22;969;49.892;10.896;2023-12-29T09:12:36;21.10;58.50
1936;DHT22;969;49.892;10.896;2023-12-29T09:15:02;21.10;58.60
1936;DHT22;969;49.892;10.896;2023-12-29T09:17:27;21.20;58.70
1936;DHT22;969;49.892;10.896;2023-12-29T09:19:53;21.20;58.70
1936;DHT22;969;49.892;10.896;2023-12-29T09:22:20;21.20;58.70
1936;DHT22;969;49.892;10.896;2023-12-29T09:24:45;21.10;58.60
1936;DHT22;969;49.892;10.896;2023-12-29T09:27:11;21.20;58.70
1936;DHT22;969;49.892;10.896;2023-12-29T09:29:37;21.20;58.70
1936;DHT22;969;49.892;10.896;2023-12-29T09:32:03;21.20;58.70
1936;DHT22;969;49.892;10.896;2023-12-29T09:34:29;21.20;58.70
1936;DHT22;969;49.892;10.896;2023-12-29T09:36:54;21.20;58.70
1936;DHT22;969;49.892;10.896;2023-12-29T09:39:20;21.10;58.60
1936;DHT22;969;49.892;10.896;2023-12-29T09:41:51;21.20;58.70
1936;DHT22;969;49.892;10.896;2023-12-29T09:44:20;21.20;58.70
1936;DHT22;969;49.892;10.896;2023-12-29T09:46:53;21.10;58.60
1936;DHT22;969;49.892;10.896;2023-12-29T09:49:19;21.20;58.70
1936;DHT22;969;49.892;10.896;2023-12-29T09:51:45;21.20;58.70
1936;DHT22;969;49.892;10.896;2023-12-29T09:54:11;21.20;58.70
1936;DHT22;969;49.892;10.896;2023-12-29T09:56:38;21.20;58.70
1936;DHT22;969;49.892;10.896;2023-12-29T09:59:04;21.20;58.70
1936;DHT22;969;49.892;10.896;2023-12-29T10:01:30;21.20;58.70
1936;DHT22;969;49.892;10.896;2023-12-29T10:03:57;21.20;58.60
1936;DHT22;969;49.892;10.896;2023-12-29T10:06:26;21.20;58.60
1936;DHT22;969;49.892;10.896;2023-12-29T10:08:53;21.20;58.60
1936;DHT22;969;49.892;10.896;2023-12-29T10:11:21;21.20;58.60
1936;DHT22;969;49.892;10.896;2023-12-29T10:13:50;21.20;58.60
1936;DHT22;969;49.892;10.896;2023-12-29T10:16:32;21.20;58.60
1936;DHT22;969;49.892;10.896;2023-12-29T10:19:14;21.20;58.60
1936;DHT22;969;49.892;10.896;2023-12-29T10:22:01;21.20;58.60
1936;DHT22;969;49.892;10.896;2023-12-29T10:24:29;21.20;58.60
1936;DHT22;969;49.892;10.896;2023-12-29T10:26:57;21.20;58.70
1936;DHT22;969;49.892;10.896;2023-12-29T10:29:23;21.10;58.60
1936;DHT22;969;49.892;10.896;2023-12-29T10:31:49;21.20;58.80
1936;DHT22;969;49.892;10.896;2023-12-29T10:34:21;21.10;58.60
1936;DHT22;969;49.892;10.896;2023-12-29T10:36:59;21.20;58.80
1936;DHT22;969;49.892;10.896;2023-12-29T10:39:28;21.10;58.70
1936;DHT22;969;49.892;10.896;2023-12-29T10:42:12;21.20;58.80
1936;DHT22;969;49.892;10.896;2023-12-29T10:44:38;21.20;58.70
1936;DHT22;969;49.892;10.896;2023-12-29T10:47:10;21.20;58.80
1936;DHT22;969;49.892;10.896;2023-12-29T10:49:36;21.20;58.80
1936;DHT22;969;49.892;10.896;2023-12-29T10:52:12;21.20;58.80
1936;DHT22;969;49.892;10.896;2023-12-29T10:54:40;21.20;58.80
1936;DHT22;969;49.892;10.896;2023-12-29T10:57:05;21.20;58.80
1936;DHT22;969;49.892;10.896;2023-12-29T10:59:31;21.20;58.80
1936;DHT22;969;49.892;10.896;2023-12-29T11:01:57;21.20;58.80
1936;DHT22;969;49.892;10.896;2023-12-29T11:04:26;21.20;58.80
1936;DHT22;969;49.892;10.896;2023-12-29T11:06:51;21.20;58.80
1936;DHT22;969;49.892;10.896;2023-12-29T11:09:28;21.20;58.80
1936;DHT22;969;49.892;10.896;2023-12-29T11:11:59;21.20;58.70
1936;DHT22;969;49.892;10.896;2023-12-29T11:14:25;21.20;58.70
1936;DHT22;969;49.892;10.896;2023-12-29T11:16:52;21.20;58.70
1936;DHT22;969;49.892;10.896;2023-12-29T11:19:21;21.20;59.20
1936;DHT22;969;49.892;10.896;2023-12-29T11:21:48;21.20;58.70
1936;DHT22;969;49.892;10.896;2023-12-29T11:24:14;21.20;58.70
1936;DHT22;969;49.892;10.896;2023-12-29T11:26:43;21.20;58.60
1936;DHT22;969;49.892;10.896;2023-12-29T11:29:09;21.20;58.60
1936;DHT22;969;49.892;10.896;2023-12-29T11:31:37;21.10;58.50
1936;DHT22;969;49.892;10.896;2023-12-29T11:34:21;21.10;58.50
1936;DHT22;969;49.892;10.896;2023-12-29T11:36:50;21.20;58.70
1936;DHT22;969;49.892;10.896;2023-12-29T11:42:31;21.10;58.60
1936;DHT22;969;49.892;10.896;2023-12-29T11:44:59;21.10;58.50
1936;DHT22;969;49.892;10.896;2023-12-29T11:47:43;21.10;58.50
1936;DHT22;969;49.892;10.896;2023-12-29T11:50:09;21.10;58.60
1936;DHT22;969;49.892;10.896;2023-12-29T11:52:36;21.10;58.60
1936;DHT22;969;49.892;10.896;2023-12-29T11:55:12;21.10;58.60
1936;DHT22;969;49.892;10.896;2023-12-29T11:57:39;21.10;58.60
1936;DHT22;969;49.892;10.896;2023-12-29T12:00:08;21.10;58.60
1936;DHT22;969;49.892;10.896;2023-12-29T12:02:34;21.10;58.60
1936;DHT22;969;49.892;10.896;2023-12-29T12:05:00;21.10;58.60
1936;DHT22;969;49.892;10.896;2023-12-29T12:10:16;21.10;58.60
1936;DHT22;969;49.892;10.896;2023-12-29T12:12:42;21.10;58.60
1936;DHT22;969;49.892;10.896;2023-12-29T12:17:56;21.10;58.60
1936;DHT22;969;49.892;10.896;2023-12-29T12:20:22;21.10;58.60
1936;DHT22;969;49.892;10.896;2023-12-29T12:22:50;21.10;58.60
1936;DHT22;969;49.892;10.896;2023-12-29T12:25:22;21.10;58.60
1936;DHT22;969;49.892;10.896;2023-12-29T12:27:50;21.10;58.60
1936;DHT22;969;49.892;10.896;2023-12-29T12:30:18;21.10;58.60
1936;DHT22;969;49.892;10.896;2023-12-29T12:32:44;21.10;58.50
1936;DHT22;969;49.892;10.896;2023-12-29T12:35:17;21.10;58.60
1936;DHT22;969;49.892;10.896;2023-12-29T12:37:42;21.10;58.60
1936;DHT22;969;49.892;10.896;2023-12-29T12:40:08;21.10;58.60
1936;DHT22;969;49.892;10.896;2023-12-29T12:42:38;21.10;58.60
1936;DHT22;969;49.892;10.896;2023-12-29T12:45:19;21.10;58.60
1936;DHT22;969;49.892;10.896;2023-12-29T12:47:49;21.10;58.60
1936;DHT22;969;49.892;10.896;2023-12-29T12:50:16;21.10;58.60
1936;DHT22;969;49.892;10.896;2023-12-29T12:52:42;21.10;58.60
1936;DHT22;969;49.892;10.896;2023-12-29T12:55:08;21.10;58.60
1936;DHT22;969;49.892;10.896;2023-12-29T12:57:35;21.10;58.60
1936;DHT22;969;49.892;10.896;2023-12-29T13:00:02;21.10;58.60
1936;DHT22;969;49.892;10.896;2023-12-29T13:02:28;21.10;58.60
1936;DHT22;969;49.892;10.896;2023-12-29T13:04:56;21.10;59.20
1936;DHT22;969;49.892;10.896;2023-12-29T13:07:22;21.10;58.60
1936;DHT22;969;49.892;10.896;2023-12-29T13:09:51;21.10;58.60
1936;DHT22;969;49.892;10.896;2023-12-29T13:12:18;21.10;58.60
1936;DHT22;969;49.892;10.896;2023-12-29T13:14:44;21.10;58.60
1936;DHT22;969;49.892;10.896;2023-12-29T13:17:12;21.10;58.60
1936;DHT22;969;49.892;10.896;2023-12-29T13:19:38;21.10;58.60
1936;DHT22;969;49.892;10.896;2023-12-29T13:22:09;21.10;58.60
1936;DHT22;969;49.892;10.896;2023-12-29T13:24:35;21.10;58.60
1936;DHT22;969;49.892;10.896;2023-12-29T13:27:07;21.10;58.60
1936;DHT22;969;49.892;10.896;2023-12-29T13:29:35;21.10;58.60
1936;DHT22;969;49.892;10.896;2023-12-29T13:32:13;21.10;58.60
1936;DHT22;969;49.892;10.896;2023-12-29T13:35:05;21.10;58.60
1936;DHT22;969;49.892;10.896;2023-12-29T13:37:48;21.10;58.60
1936;DHT22;969;49.892;10.896;2023-12-29T13:43:02;21.10;58.60
1936;DHT22;969;49.892;10.896;2023-12-29T13:45:29;21.10;58.60
1936;DHT22;969;49.892;10.896;2023-12-29T13:47:57;21.10;58.60
1936;DHT22;969;49.892;10.896;2023-12-29T13:50:23;21.10;58.60
1936;DHT22;969;49.892;10.896;2023-12-29T13:52:49;21.00;58.60
1936;DHT22;969;49.892;10.896;2023-12-29T13:55:24;21.10;58.60
1936;DHT22;969;49.892;10.896;2023-12-29T13:57:53;21.10;58.60
1936;DHT22;969;49.892;10.896;2023-12-29T14:00:21;21.10;58.70
1936;DHT22;969;49.892;10.896;2023-12-29T14:05:34;21.10;58.60
1936;DHT22;969;49.892;10.896;2023-12-29T14:10:33;21.10;58.60
1936;DHT22;969;49.892;10.896;2023-12-29T14:13:07;21.10;58.60
1936;DHT22;969;49.892;10.896;2023-12-29T14:15:37;21.10;58.60
1936;DHT22;969;49.892;10.896;2023-12-29T14:20:40;21.10;58.60
1936;DHT22;969;49.892;10.896;2023-12-29T14:23:06;21.10;58.60
1936;DHT22;969;49.892;10.896;2023-12-29T14:25:36;21.10;58.60
1936;DHT22;969;49.892;10.896;2023-12-29T14:28:03;21.10;58.60
1936;DHT22;969;49.892;10.896;2023-12-29T14:30:29;21.10;58.60
1936;DHT22;969;49.892;10.896;2023-12-29T14:32:57;21.10;58.60
1936;DHT22;969;49.892;10.896;2023-12-29T14:35:23;21.10;58.60
1936;DHT22;969;49.892;10.896;2023-12-29T14:37:49;21.10;58.60
1936;DHT22;969;49.892;10.896;2023-12-29T14:40:15;21.10;58.60
1936;DHT22;969;49.892;10.896;2023-12-29T14:42:40;21.10;58.60
1936;DHT22;969;49.892;10.896;2023-12-29T14:45:07;21.10;58.60
1936;DHT22;969;49.892;10.896;2023-12-29T14:47:33;21.10;58.60
1936;DHT22;969;49.892;10.896;2023-12-29T14:50:00;21.10;58.60
1936;DHT22;969;49.892;10.896;2023-12-29T14:52:25;21.10;58.60
1936;DHT22;969;49.892;10.896;2023-12-29T14:54:51;21.10;58.60
1936;DHT22;969;49.892;10.896;2023-12-29T14:57:17;21.10;58.60
1936;DHT22;969;49.892;10.896;2023-12-29T14:59:42;21.10;58.60
1936;DHT22;969;49.892;10.896;2023-12-29T15:02:08;21.10;58.70
1936;DHT22;969;49.892;10.896;2023-12-29T15:04:34;21.10;58.70
1936;DHT22;969;49.892;10.896;2023-12-29T15:07:00;21.10;58.70
1936;DHT22;969;49.892;10.896;2023-12-29T15:09:26;21.10;58.60
1936;DHT22;969;49.892;10.896;2023-12-29T15:11:52;21.10;58.60
1936;DHT22;969;49.892;10.896;2023-12-29T15:14:18;21.10;58.60
1936;DHT22;969;49.892;10.896;2023-12-29T15:16:45;21.10;58.60
1936;DHT22;969;49.892;10.896;2023-12-29T15:19:11;21.10;58.60
1936;DHT22;969;49.892;10.896;2023-12-29T15:21:40;21.10;58.50
1936;DHT22;969;49.892;10.896;2023-12-29T15:24:06;21.10;58.50
1936;DHT22;969;49.892;10.896;2023-12-29T15:26:32;21.10;58.50
1936;DHT22;969;49.892;10.896;2023-12-29T15:28:57;21.10;58.50
1936;DHT22;969;49.892;10.896;2023-12-29T15:31:23;21.20;58.60
1936;DHT22;969;49.892;10.896;2023-12-29T15:33:50;21.20;58.60
1936;DHT22;969;49.892;10.896;2023-12-29T15:36:16;21.20;58.60
1936;DHT22;969;49.892;10.896;2023-12-29T15:38:46;21.20;58.60
1936;DHT22;969;49.892;10.896;2023-12-29T15:41:12;21.20;58.60
1936;DHT22;969;49.892;10.896;2023-12-29T15:43:37;21.20;58.70
1936;DHT22;969;49.892;10.896;2023-12-29T15:46:03;21.20;58.70
1936;DHT22;969;49.892;10.896;2023-12-29T15:48:29;21.20;58.70
1936;DHT22;969;49.892;10.896;2023-12-29T15:50:56;21.20;58.70
1936;DHT22;969;49.892;10.896;2023-12-29T15:53:21;21.20;58.70
1936;DHT22;969;49.892;10.896;2023-12-29T15:55:47;21.20;58.60
1936;DHT22;969;49.892;10.896;2023-12-29T15:58:13;21.20;58.60
1936;DHT22;969;49.892;10.896;2023-12-29T16:00:38;21.20;58.60
1936;DHT22;969;49.892;10.896;2023-12-29T16:03:04;21.20;58.60
1936;DHT22;969;49.892;10.896;2023-12-29T16:05:30;21.20;58.60
1936;DHT22;969;49.892;10.896;2023-12-29T16:07:55;21.20;58.60
1936;DHT22;969;49.892;10.896;2023-12-29T16:10:21;21.20;58.60
1936;DHT22;969;49.892;10.896;2023-12-29T16:12:49;21.20;58.60
1936;DHT22;969;49.892;10.896;2023-12-29T16:15:15;21.20;58.70
1936;DHT22;969;49.892;10.896;2023-12-29T16:17:40;21.20;58.70
1936;DHT22;969;49.892;10.896;2023-12-29T16:20:06;21.20;58.70
1936;DHT22;969;49.892;10.896;2023-12-29T16:22:32;21.20;58.60